KMKC/MKC METAR and TAF weather

Enter ICAO airport designator
Station Type Date Time Source
KMKC METAR 2019/08/23 15:11 UTC NOAA

KMKC 231511Z 08008KT 10SM FEW017 BKN060 24/18 A3007 RMK AO2 T02440183


Station Type Date Time Source
KMKC Decoded METAR 2019/08/23 15:11 UTC NOAA

Station name not available
Aug 23, 2019 - 11:11 AM EDT / 2019.08.23 1511 UTC
Wind: from the E (080 degrees) at 9 MPH (8 KT):0
Visibility: 10 mile(s):0
Sky conditions: mostly cloudy
Temperature: 75.9 F (24.4 C)
Dew Point: 64.9 F (18.3 C)
Relative Humidity: 68%
Pressure (altimeter): 30.07 in. Hg (1018 hPa)
ob: KMKC 231511Z 08008KT 10SM FEW017 BKN060 24/18 A3007 RMK AO2 T02440183
cycle: 15

Station Type Date Time Source
KMKC TAF 2019/08/23 12:39 UTC NOAA

TAF KMKC 231135Z 2312/2412 07006KT P6SM SCT025 BKN060
FM231500 10007KT P6SM FEW150

Example: see airport list